sensor_id;sensor_type;location;lat;lon;timestamp;temperature;humidity
9179;DHT22;4624;48.126;11.546;2022-08-04T00:02:17;23.80;67.10
9179;DHT22;4624;48.126;11.546;2022-08-04T00:04:47;23.60;67.30
9179;DHT22;4624;48.126;11.546;2022-08-04T00:07:25;23.60;67.80
9179;DHT22;4624;48.126;11.546;2022-08-04T00:09:58;23.60;69.20
9179;DHT22;4624;48.126;11.546;2022-08-04T00:14:58;23.30;68.00
9179;DHT22;4624;48.126;11.546;2022-08-04T00:17:31;23.20;68.80
9179;DHT22;4624;48.126;11.546;2022-08-04T00:19:59;23.30;69.30
9179;DHT22;4624;48.126;11.546;2022-08-04T00:22:28;23.40;69.30
9179;DHT22;4624;48.126;11.546;2022-08-04T00:24:56;23.30;69.10
9179;DHT22;4624;48.126;11.546;2022-08-04T00:27:23;23.40;69.60
9179;DHT22;4624;48.126;11.546;2022-08-04T00:29:50;23.40;69.90
9179;DHT22;4624;48.126;11.546;2022-08-04T00:32:17;23.40;69.80
9179;DHT22;4624;48.126;11.546;2022-08-04T00:34:45;23.40;69.90
9179;DHT22;4624;48.126;11.546;2022-08-04T00:37:14;23.40;70.10
9179;DHT22;4624;48.126;11.546;2022-08-04T00:39:41;23.40;70.00
9179;DHT22;4624;48.126;11.546;2022-08-04T00:42:25;23.40;70.30
9179;DHT22;4624;48.126;11.546;2022-08-04T00:45:06;23.30;70.60
9179;DHT22;4624;48.126;11.546;2022-08-04T00:47:49;23.30;70.40
9179;DHT22;4624;48.126;11.546;2022-08-04T00:50:26;23.30;70.20
9179;DHT22;4624;48.126;11.546;2022-08-04T00:53:06;23.30;70.50
9179;DHT22;4624;48.126;11.546;2022-08-04T00:56:04;23.20;70.80
9179;DHT22;4624;48.126;11.546;2022-08-04T00:58:42;23.10;72.10
9179;DHT22;4624;48.126;11.546;2022-08-04T01:01:21;23.00;71.90
9179;DHT22;4624;48.126;11.546;2022-08-04T01:04:01;22.90;72.30
9179;DHT22;4624;48.126;11.546;2022-08-04T01:06:35;22.90;72.70
9179;DHT22;4624;48.126;11.546;2022-08-04T01:09:22;22.90;73.00
9179;DHT22;4624;48.126;11.546;2022-08-04T01:12:02;22.90;73.50
9179;DHT22;4624;48.126;11.546;2022-08-04T01:14:55;22.90;73.50
9179;DHT22;4624;48.126;11.546;2022-08-04T01:17:42;22.90;73.90
9179;DHT22;4624;48.126;11.546;2022-08-04T01:20:19;22.90;74.00
9179;DHT22;4624;48.126;11.546;2022-08-04T01:23:08;22.90;74.10
9179;DHT22;4624;48.126;11.546;2022-08-04T01:26:01;22.90;74.40
9179;DHT22;4624;48.126;11.546;2022-08-04T01:31:18;22.80;75.40
9179;DHT22;4624;48.126;11.546;2022-08-04T01:33:47;22.80;75.40
9179;DHT22;4624;48.126;11.546;2022-08-04T01:36:17;22.80;75.90
9179;DHT22;4624;48.126;11.546;2022-08-04T01:38:45;22.70;75.30
9179;DHT22;4624;48.126;11.546;2022-08-04T01:41:13;22.70;75.50
9179;DHT22;4624;48.126;11.546;2022-08-04T01:43:41;22.60;75.70
9179;DHT22;4624;48.126;11.546;2022-08-04T01:46:10;22.60;75.80
9179;DHT22;4624;48.126;11.546;2022-08-04T01:48:40;22.60;75.80
9179;DHT22;4624;48.126;11.546;2022-08-04T01:51:08;22.60;76.10
9179;DHT22;4624;48.126;11.546;2022-08-04T01:53:37;22.50;76.40
9179;DHT22;4624;48.126;11.546;2022-08-04T01:56:05;22.50;76.80
9179;DHT22;4624;48.126;11.546;2022-08-04T01:58:34;22.50;77.30
9179;DHT22;4624;48.126;11.546;2022-08-04T02:01:03;22.40;77.20
9179;DHT22;4624;48.126;11.546;2022-08-04T02:03:32;22.40;77.60
9179;DHT22;4624;48.126;11.546;2022-08-04T02:06:08;22.30;78.00
9179;DHT22;4624;48.126;11.546;2022-08-04T02:08:43;22.30;78.20
9179;DHT22;4624;48.126;11.546;2022-08-04T02:11:14;22.30;78.60
9179;DHT22;4624;48.126;11.546;2022-08-04T02:13:50;22.20;78.80
9179;DHT22;4624;48.126;11.546;2022-08-04T02:16:28;22.20;79.00
9179;DHT22;4624;48.126;11.546;2022-08-04T02:19:00;22.10;79.50
9179;DHT22;4624;48.126;11.546;2022-08-04T02:21:29;22.00;79.90
9179;DHT22;4624;48.126;11.546;2022-08-04T02:24:00;22.00;80.20
9179;DHT22;4624;48.126;11.546;2022-08-04T02:26:28;22.00;80.60
9179;DHT22;4624;48.126;11.546;2022-08-04T02:29:03;22.00;81.10
9179;DHT22;4624;48.126;11.546;2022-08-04T02:31:38;22.00;81.30
9179;DHT22;4624;48.126;11.546;2022-08-04T02:34:15;22.00;81.60
9179;DHT22;4624;48.126;11.546;2022-08-04T02:36:44;22.00;81.80
9179;DHT22;4624;48.126;11.546;2022-08-04T02:39:18;21.90;82.00
9179;DHT22;4624;48.126;11.546;2022-08-04T02:41:46;21.90;82.60
9179;DHT22;4624;48.126;11.546;2022-08-04T02:44:13;21.90;82.60
9179;DHT22;4624;48.126;11.546;2022-08-04T02:46:45;21.80;82.60
9179;DHT22;4624;48.126;11.546;2022-08-04T02:49:14;21.80;83.20
9179;DHT22;4624;48.126;11.546;2022-08-04T02:51:44;21.80;83.40
9179;DHT22;4624;48.126;11.546;2022-08-04T02:54:15;21.80;83.60
9179;DHT22;4624;48.126;11.546;2022-08-04T02:56:45;21.70;83.80
9179;DHT22;4624;48.126;11.546;2022-08-04T02:59:14;21.70;84.30
9179;DHT22;4624;48.126;11.546;2022-08-04T03:01:41;21.70;84.60
9179;DHT22;4624;48.126;11.546;2022-08-04T03:04:40;21.60;84.90
9179;DHT22;4624;48.126;11.546;2022-08-04T03:11:00;21.60;86.10
9179;DHT22;4624;48.126;11.546;2022-08-04T03:16:47;21.60;86.60
9179;DHT22;4624;48.126;11.546;2022-08-04T03:22:34;21.20;87.70
9179;DHT22;4624;48.126;11.546;2022-08-04T03:28:37;21.10;88.80
9179;DHT22;4624;48.126;11.546;2022-08-04T03:31:36;21.10;89.10
9179;DHT22;4624;48.126;11.546;2022-08-04T03:34:21;21.10;89.20
9179;DHT22;4624;48.126;11.546;2022-08-04T03:37:07;21.20;89.60
9179;DHT22;4624;48.126;11.546;2022-08-04T03:40:05;21.20;89.70
9179;DHT22;4624;48.126;11.546;2022-08-04T03:43:04;21.10;89.30
9179;DHT22;4624;48.126;11.546;2022-08-04T03:46:04;21.10;89.50
9179;DHT22;4624;48.126;11.546;2022-08-04T03:51:35;21.10;89.60
9179;DHT22;4624;48.126;11.546;2022-08-04T03:55:00;21.00;90.00
9179;DHT22;4624;48.126;11.546;2022-08-04T03:57:51;21.00;89.80
9179;DHT22;4624;48.126;11.546;2022-08-04T04:00:29;21.00;90.00
9179;DHT22;4624;48.126;11.546;2022-08-04T04:03:22;21.00;90.20
9179;DHT22;4624;48.126;11.546;2022-08-04T04:09:18;21.00;90.10
9179;DHT22;4624;48.126;11.546;2022-08-04T04:14:53;21.00;90.20
9179;DHT22;4624;48.126;11.546;2022-08-04T04:20:37;21.00;90.20
9179;DHT22;4624;48.126;11.546;2022-08-04T04:23:31;21.00;90.20
9179;DHT22;4624;48.126;11.546;2022-08-04T04:26:13;21.00;90.30
9179;DHT22;4624;48.126;11.546;2022-08-04T04:29:00;21.00;90.30
9179;DHT22;4624;48.126;11.546;2022-08-04T04:31:37;21.00;90.30
9179;DHT22;4624;48.126;11.546;2022-08-04T04:34:15;21.00;90.40
9179;DHT22;4624;48.126;11.546;2022-08-04T04:37:02;21.00;90.50
9179;DHT22;4624;48.126;11.546;2022-08-04T04:39:36;21.00;90.50
9179;DHT22;4624;48.126;11.546;2022-08-04T04:42:27;21.00;90.60
9179;DHT22;4624;48.126;11.546;2022-08-04T04:45:04;21.10;90.50
9179;DHT22;4624;48.126;11.546;2022-08-04T04:47:44;21.10;90.50
9179;DHT22;4624;48.126;11.546;2022-08-04T04:50:22;21.00;90.50
9179;DHT22;4624;48.126;11.546;2022-08-04T04:52:55;21.10;90.60
9179;DHT22;4624;48.126;11.546;2022-08-04T04:55:26;21.20;90.70
9179;DHT22;4624;48.126;11.546;2022-08-04T04:57:57;21.20;90.60
9179;DHT22;4624;48.126;11.546;2022-08-04T05:00:31;21.30;90.60
9179;DHT22;4624;48.126;11.546;2022-08-04T05:03:22;21.30;90.60
9179;DHT22;4624;48.126;11.546;2022-08-04T05:06:06;21.40;90.60
9179;DHT22;4624;48.126;11.546;2022-08-04T05:09:02;21.50;90.70
9179;DHT22;4624;48.126;11.546;2022-08-04T05:12:03;21.60;90.60
9179;DHT22;4624;48.126;11.546;2022-08-04T05:14:40;21.70;90.60
9179;DHT22;4624;48.126;11.546;2022-08-04T05:17:16;21.70;90.30
9179;DHT22;4624;48.126;11.546;2022-08-04T05:19:52;21.70;90.20
9179;DHT22;4624;48.126;11.546;2022-08-04T05:22:24;21.80;90.30
9179;DHT22;4624;48.126;11.546;2022-08-04T05:25:01;21.80;90.10
9179;DHT22;4624;48.126;11.546;2022-08-04T05:27:33;21.90;90.10
9179;DHT22;4624;48.126;11.546;2022-08-04T05:30:04;22.00;89.80
9179;DHT22;4624;48.126;11.546;2022-08-04T05:32:37;22.20;89.40
9179;DHT22;4624;48.126;11.546;2022-08-04T05:35:09;22.30;88.90
9179;DHT22;4624;48.126;11.546;2022-08-04T05:37:39;22.40;88.60
9179;DHT22;4624;48.126;11.546;2022-08-04T05:40:09;22.60;88.40
9179;DHT22;4624;48.126;11.546;2022-08-04T05:42:38;22.80;88.00
9179;DHT22;4624;48.126;11.546;2022-08-04T05:45:07;23.00;87.70
9179;DHT22;4624;48.126;11.546;2022-08-04T05:47:35;23.10;87.40
9179;DHT22;4624;48.126;11.546;2022-08-04T05:50:05;23.30;86.90
9179;DHT22;4624;48.126;11.546;2022-08-04T05:52:33;23.60;86.40
9179;DHT22;4624;48.126;11.546;2022-08-04T05:55:03;23.70;86.10
9179;DHT22;4624;48.126;11.546;2022-08-04T05:57:32;23.90;85.60
9179;DHT22;4624;48.126;11.546;2022-08-04T06:00:03;24.10;85.00
9179;DHT22;4624;48.126;11.546;2022-08-04T06:02:30;24.30;84.70
9179;DHT22;4624;48.126;11.546;2022-08-04T06:04:58;24.40;83.90
9179;DHT22;4624;48.126;11.546;2022-08-04T06:07:26;24.60;83.20
9179;DHT22;4624;48.126;11.546;2022-08-04T06:09:53;24.70;82.80
9179;DHT22;4624;48.126;11.546;2022-08-04T06:12:24;24.90;82.10
9179;DHT22;4624;48.126;11.546;2022-08-04T06:14:54;25.00;81.50
9179;DHT22;4624;48.126;11.546;2022-08-04T06:17:25;25.20;80.90
9179;DHT22;4624;48.126;11.546;2022-08-04T06:19:54;25.30;80.10
9179;DHT22;4624;48.126;11.546;2022-08-04T06:22:22;25.40;79.40
9179;DHT22;4624;48.126;11.546;2022-08-04T06:24:51;25.40;79.10
9179;DHT22;4624;48.126;11.546;2022-08-04T06:27:20;25.50;78.90
9179;DHT22;4624;48.126;11.546;2022-08-04T06:29:48;25.60;78.40
9179;DHT22;4624;48.126;11.546;2022-08-04T06:32:18;25.70;77.90
9179;DHT22;4624;48.126;11.546;2022-08-04T06:34:54;25.80;77.50
9179;DHT22;4624;48.126;11.546;2022-08-04T06:37:23;26.00;77.10
9179;DHT22;4624;48.126;11.546;2022-08-04T06:39:51;26.10;76.50
9179;DHT22;4624;48.126;11.546;2022-08-04T06:42:22;26.20;76.50
9179;DHT22;4624;48.126;11.546;2022-08-04T06:44:53;26.30;76.80
9179;DHT22;4624;48.126;11.546;2022-08-04T06:47:22;26.40;75.50
9179;DHT22;4624;48.126;11.546;2022-08-04T06:49:52;26.60;75.30
9179;DHT22;4624;48.126;11.546;2022-08-04T06:52:19;26.70;74.40
9179;DHT22;4624;48.126;11.546;2022-08-04T06:54:47;26.90;74.70
9179;DHT22;4624;48.126;11.546;2022-08-04T06:57:17;27.00;74.40
9179;DHT22;4624;48.126;11.546;2022-08-04T06:59:48;27.10;74.20
9179;DHT22;4624;48.126;11.546;2022-08-04T07:02:19;27.30;73.30
9179;DHT22;4624;48.126;11.546;2022-08-04T07:04:48;27.50;73.50
9179;DHT22;4624;48.126;11.546;2022-08-04T07:07:16;27.70;72.30
9179;DHT22;4624;48.126;11.546;2022-08-04T07:09:43;27.80;72.00
9179;DHT22;4624;48.126;11.546;2022-08-04T07:12:10;28.00;70.60
9179;DHT22;4624;48.126;11.546;2022-08-04T07:14:39;28.10;70.10
9179;DHT22;4624;48.126;11.546;2022-08-04T07:17:08;28.30;69.60
9179;DHT22;4624;48.126;11.546;2022-08-04T07:19:35;28.50;68.90
9179;DHT22;4624;48.126;11.546;2022-08-04T07:22:06;28.60;67.80
9179;DHT22;4624;48.126;11.546;2022-08-04T07:24:35;28.80;67.20
9179;DHT22;4624;48.126;11.546;2022-08-04T07:27:03;29.00;66.10
9179;DHT22;4624;48.126;11.546;2022-08-04T07:29:30;29.10;65.60
9179;DHT22;4624;48.126;11.546;2022-08-04T07:31:57;29.30;64.80
9179;DHT22;4624;48.126;11.546;2022-08-04T07:34:25;29.40;64.60
9179;DHT22;4624;48.126;11.546;2022-08-04T07:36:54;29.60;64.00
9179;DHT22;4624;48.126;11.546;2022-08-04T07:39:24;29.70;62.80
9179;DHT22;4624;48.126;11.546;2022-08-04T07:41:53;29.90;62.40
9179;DHT22;4624;48.126;11.546;2022-08-04T07:44:20;30.10;61.70
9179;DHT22;4624;48.126;11.546;2022-08-04T07:46:47;30.30;61.50
9179;DHT22;4624;48.126;11.546;2022-08-04T07:49:14;30.50;59.60
9179;DHT22;4624;48.126;11.546;2022-08-04T07:51:41;30.60;58.50
9179;DHT22;4624;48.126;11.546;2022-08-04T07:54:08;30.80;58.40
9179;DHT22;4624;48.126;11.546;2022-08-04T07:56:38;31.00;57.70
9179;DHT22;4624;48.126;11.546;2022-08-04T07:59:06;31.10;57.20
9179;DHT22;4624;48.126;11.546;2022-08-04T08:01:34;31.40;55.90
9179;DHT22;4624;48.126;11.546;2022-08-04T08:04:04;31.50;55.20
9179;DHT22;4624;48.126;11.546;2022-08-04T08:06:31;31.60;54.90
9179;DHT22;4624;48.126;11.546;2022-08-04T08:09:02;31.80;54.70
9179;DHT22;4624;48.126;11.546;2022-08-04T08:11:32;32.00;53.80
9179;DHT22;4624;48.126;11.546;2022-08-04T08:14:00;32.10;53.30
9179;DHT22;4624;48.126;11.546;2022-08-04T08:16:28;32.30;53.30
9179;DHT22;4624;48.126;11.546;2022-08-04T08:18:55;32.60;53.10
9179;DHT22;4624;48.126;11.546;2022-08-04T08:21:22;32.80;52.70
9179;DHT22;4624;48.126;11.546;2022-08-04T08:23:49;33.00;52.60
9179;DHT22;4624;48.126;11.546;2022-08-04T08:26:16;33.40;52.80
9179;DHT22;4624;48.126;11.546;2022-08-04T08:28:43;33.80;52.10
9179;DHT22;4624;48.126;11.546;2022-08-04T08:31:11;33.90;50.50
9179;DHT22;4624;48.126;11.546;2022-08-04T08:33:39;34.20;50.30
9179;DHT22;4624;48.126;11.546;2022-08-04T08:36:09;34.60;49.80
9179;DHT22;4624;48.126;11.546;2022-08-04T08:38:44;35.10;49.40
9179;DHT22;4624;48.126;11.546;2022-08-04T08:41:36;35.50;48.80
9179;DHT22;4624;48.126;11.546;2022-08-04T08:47:14;36.70;46.50
9179;DHT22;4624;48.126;11.546;2022-08-04T08:50:09;38.00;44.50
9179;DHT22;4624;48.126;11.546;2022-08-04T08:52:55;39.10;42.40
9179;DHT22;4624;48.126;11.546;2022-08-04T08:55:36;39.80;40.50
9179;DHT22;4624;48.126;11.546;2022-08-04T09:01:06;40.50;38.30
9179;DHT22;4624;48.126;11.546;2022-08-04T09:06:45;40.70;38.00
9179;DHT22;4624;48.126;11.546;2022-08-04T09:09:42;40.80;38.10
9179;DHT22;4624;48.126;11.546;2022-08-04T09:12:19;41.00;37.90
9179;DHT22;4624;48.126;11.546;2022-08-04T09:14:53;41.00;37.90
9179;DHT22;4624;48.126;11.546;2022-08-04T09:17:28;41.00;37.70
9179;DHT22;4624;48.126;11.546;2022-08-04T09:20:00;40.60;37.70
9179;DHT22;4624;48.126;11.546;2022-08-04T09:22:35;40.40;37.60
9179;DHT22;4624;48.126;11.546;2022-08-04T09:25:09;40.40;37.70
9179;DHT22;4624;48.126;11.546;2022-08-04T09:27:43;40.50;37.40
9179;DHT22;4624;48.126;11.546;2022-08-04T09:30:14;40.60;38.10
9179;DHT22;4624;48.126;11.546;2022-08-04T09:32:57;40.70;37.20
9179;DHT22;4624;48.126;11.546;2022-08-04T09:35:41;40.90;37.30
9179;DHT22;4624;48.126;11.546;2022-08-04T09:38:17;40.90;37.30
9179;DHT22;4624;48.126;11.546;2022-08-04T09:40:48;41.00;36.90
9179;DHT22;4624;48.126;11.546;2022-08-04T09:43:28;41.00;37.00
9179;DHT22;4624;48.126;11.546;2022-08-04T09:46:04;41.00;36.00
9179;DHT22;4624;48.126;11.546;2022-08-04T09:48:36;41.00;36.10
9179;DHT22;4624;48.126;11.546;2022-08-04T09:51:13;41.10;35.80
9179;DHT22;4624;48.126;11.546;2022-08-04T09:53:51;41.20;35.80
9179;DHT22;4624;48.126;11.546;2022-08-04T09:56:23;41.50;35.00
9179;DHT22;4624;48.126;11.546;2022-08-04T09:59:00;41.60;34.70
9179;DHT22;4624;48.126;11.546;2022-08-04T10:01:32;41.80;34.50
9179;DHT22;4624;48.126;11.546;2022-08-04T10:04:01;42.00;33.50
9179;DHT22;4624;48.126;11.546;2022-08-04T10:07:02;42.20;33.20
9179;DHT22;4624;48.126;11.546;2022-08-04T10:09:41;42.60;33.00
9179;DHT22;4624;48.126;11.546;2022-08-04T10:12:20;42.80;32.30
9179;DHT22;4624;48.126;11.546;2022-08-04T10:14:55;43.00;32.20
9179;DHT22;4624;48.126;11.546;2022-08-04T10:17:37;43.20;32.30
9179;DHT22;4624;48.126;11.546;2022-08-04T10:20:10;43.40;31.20
9179;DHT22;4624;48.126;11.546;2022-08-04T10:22:45;43.50;31.40
9179;DHT22;4624;48.126;11.546;2022-08-04T10:25:37;43.70;31.50
9179;DHT22;4624;48.126;11.546;2022-08-04T10:28:11;44.10;31.80
9179;DHT22;4624;48.126;11.546;2022-08-04T10:30:41;44.40;31.60
9179;DHT22;4624;48.126;11.546;2022-08-04T10:33:23;44.50;30.50
9179;DHT22;4624;48.126;11.546;2022-08-04T10:35:56;44.70;30.00
9179;DHT22;4624;48.126;11.546;2022-08-04T10:38:30;45.00;30.10
9179;DHT22;4624;48.126;11.546;2022-08-04T10:41:01;45.20;30.00
9179;DHT22;4624;48.126;11.546;2022-08-04T10:43:41;45.40;29.80
9179;DHT22;4624;48.126;11.546;2022-08-04T10:46:13;45.60;29.50
9179;DHT22;4624;48.126;11.546;2022-08-04T10:48:45;46.00;29.50
9179;DHT22;4624;48.126;11.546;2022-08-04T10:51:20;46.10;29.00
9179;DHT22;4624;48.126;11.546;2022-08-04T10:53:56;46.30;28.30
9179;DHT22;4624;48.126;11.546;2022-08-04T10:56:31;46.60;28.40
9179;DHT22;4624;48.126;11.546;2022-08-04T10:59:01;46.70;28.30
9179;DHT22;4624;48.126;11.546;2022-08-04T11:01:32;46.80;28.20
9179;DHT22;4624;48.126;11.546;2022-08-04T11:04:05;47.00;28.10
9179;DHT22;4624;48.126;11.546;2022-08-04T11:06:34;47.20;27.90
9179;DHT22;4624;48.126;11.546;2022-08-04T11:09:04;47.40;27.80
9179;DHT22;4624;48.126;11.546;2022-08-04T11:11:35;47.80;27.80
9179;DHT22;4624;48.126;11.546;2022-08-04T11:14:05;47.90;27.10
9179;DHT22;4624;48.126;11.546;2022-08-04T11:16:38;47.90;27.20
9179;DHT22;4624;48.126;11.546;2022-08-04T11:19:19;48.10;26.70
9179;DHT22;4624;48.126;11.546;2022-08-04T11:21:54;47.90;26.80
9179;DHT22;4624;48.126;11.546;2022-08-04T11:24:29;47.70;26.90
9179;DHT22;4624;48.126;11.546;2022-08-04T11:27:04;47.60;27.10
9179;DHT22;4624;48.126;11.546;2022-08-04T11:29:39;47.80;26.90
9179;DHT22;4624;48.126;11.546;2022-08-04T11:32:12;47.90;26.80
9179;DHT22;4624;48.126;11.546;2022-08-04T11:34:46;48.10;26.90
9179;DHT22;4624;48.126;11.546;2022-08-04T11:37:17;48.20;26.70
9179;DHT22;4624;48.126;11.546;2022-08-04T11:39:50;48.20;26.70
9179;DHT22;4624;48.126;11.546;2022-08-04T11:42:20;48.20;26.60
9179;DHT22;4624;48.126;11.546;2022-08-04T11:44:48;48.40;26.60
9179;DHT22;4624;48.126;11.546;2022-08-04T11:47:26;48.40;26.40
9179;DHT22;4624;48.126;11.546;2022-08-04T11:50:02;48.20;26.60
9179;DHT22;4624;48.126;11.546;2022-08-04T11:52:31;48.00;26.40
9179;DHT22;4624;48.126;11.546;2022-08-04T11:55:03;47.50;26.30
9179;DHT22;4624;48.126;11.546;2022-08-04T11:57:31;46.80;26.90
9179;DHT22;4624;48.126;11.546;2022-08-04T11:59:58;45.80;27.50
9179;DHT22;4624;48.126;11.546;2022-08-04T12:03:10;44.60;28.30
9179;DHT22;4624;48.126;11.546;2022-08-04T12:05:46;42.90;29.30
9179;DHT22;4624;48.126;11.546;2022-08-04T12:08:39;41.20;30.70
9179;DHT22;4624;48.126;11.546;2022-08-04T12:11:20;39.80;32.00
9179;DHT22;4624;48.126;11.546;2022-08-04T12:13:56;38.90;33.10
9179;DHT22;4624;48.126;11.546;2022-08-04T12:16:31;38.20;34.50
9179;DHT22;4624;48.126;11.546;2022-08-04T12:19:03;37.50;35.60
9179;DHT22;4624;48.126;11.546;2022-08-04T12:21:38;37.00;35.30
9179;DHT22;4624;48.126;11.546;2022-08-04T12:24:16;36.60;35.90
9179;DHT22;4624;48.126;11.546;2022-08-04T12:26:51;36.20;36.80
9179;DHT22;4624;48.126;11.546;2022-08-04T12:29:19;35.80;36.90
9179;DHT22;4624;48.126;11.546;2022-08-04T12:31:52;35.50;37.90
9179;DHT22;4624;48.126;11.546;2022-08-04T12:34:25;35.20;38.20
9179;DHT22;4624;48.126;11.546;2022-08-04T12:37:04;35.00;38.70
9179;DHT22;4624;48.126;11.546;2022-08-04T12:39:32;34.80;40.00
9179;DHT22;4624;48.126;11.546;2022-08-04T12:42:10;34.60;39.90
9179;DHT22;4624;48.126;11.546;2022-08-04T12:44:40;34.40;39.80
9179;DHT22;4624;48.126;11.546;2022-08-04T12:47:09;34.20;40.00
9179;DHT22;4624;48.126;11.546;2022-08-04T12:49:38;34.10;40.50
9179;DHT22;4624;48.126;11.546;2022-08-04T12:52:08;34.00;40.40
9179;DHT22;4624;48.126;11.546;2022-08-04T12:54:36;33.90;41.10
9179;DHT22;4624;48.126;11.546;2022-08-04T12:57:06;33.90;40.70
9179;DHT22;4624;48.126;11.546;2022-08-04T12:59:37;33.80;40.70
9179;DHT22;4624;48.126;11.546;2022-08-04T13:02:05;33.70;40.20
9179;DHT22;4624;48.126;11.546;2022-08-04T13:04:35;33.70;40.20
9179;DHT22;4624;48.126;11.546;2022-08-04T13:07:11;33.60;40.60
9179;DHT22;4624;48.126;11.546;2022-08-04T13:09:39;33.60;41.00
9179;DHT22;4624;48.126;11.546;2022-08-04T13:12:13;33.60;40.90
9179;DHT22;4624;48.126;11.546;2022-08-04T13:14:41;33.60;40.90
9179;DHT22;4624;48.126;11.546;2022-08-04T13:17:10;33.50;40.70
9179;DHT22;4624;48.126;11.546;2022-08-04T13:19:38;33.50;41.10
9179;DHT22;4624;48.126;11.546;2022-08-04T13:22:05;33.50;41.60
9179;DHT22;4624;48.126;11.546;2022-08-04T13:24:33;33.50;41.60
9179;DHT22;4624;48.126;11.546;2022-08-04T13:27:03;33.50;40.80
9179;DHT22;4624;48.126;11.546;2022-08-04T13:29:37;33.60;40.80
9179;DHT22;4624;48.126;11.546;2022-08-04T13:32:05;33.60;40.80
9179;DHT22;4624;48.126;11.546;2022-08-04T13:34:34;33.60;40.80
9179;DHT22;4624;48.126;11.546;2022-08-04T13:37:02;33.50;40.60
9179;DHT22;4624;48.126;11.546;2022-08-04T13:39:29;33.50;40.50
9179;DHT22;4624;48.126;11.546;2022-08-04T13:41:59;33.50;41.10
9179;DHT22;4624;48.126;11.546;2022-08-04T13:44:29;33.40;41.00
9179;DHT22;4624;48.126;11.546;2022-08-04T13:47:00;33.40;41.10
9179;DHT22;4624;48.126;11.546;2022-08-04T13:49:28;33.40;41.30
9179;DHT22;4624;48.126;11.546;2022-08-04T13:51:58;33.40;41.30
9179;DHT22;4624;48.126;11.546;2022-08-04T13:54:25;33.30;41.00
9179;DHT22;4624;48.126;11.546;2022-08-04T13:56:54;33.40;41.50
9179;DHT22;4624;48.126;11.546;2022-08-04T13:59:26;33.40;41.40
9179;DHT22;4624;48.126;11.546;2022-08-04T14:02:00;33.30;41.30
9179;DHT22;4624;48.126;11.546;2022-08-04T14:04:28;33.30;41.60
9179;DHT22;4624;48.126;11.546;2022-08-04T14:07:02;33.30;41.80
9179;DHT22;4624;48.126;11.546;2022-08-04T14:09:32;33.30;42.10
9179;DHT22;4624;48.126;11.546;2022-08-04T14:12:06;33.30;42.20
9179;DHT22;4624;48.126;11.546;2022-08-04T14:14:34;33.40;42.50
9179;DHT22;4624;48.126;11.546;2022-08-04T14:17:05;33.40;42.80
9179;DHT22;4624;48.126;11.546;2022-08-04T14:19:52;33.40;42.70
9179;DHT22;4624;48.126;11.546;2022-08-04T14:22:30;33.40;42.50
9179;DHT22;4624;48.126;11.546;2022-08-04T14:24:59;33.40;42.70
9179;DHT22;4624;48.126;11.546;2022-08-04T14:27:29;33.40;42.60
9179;DHT22;4624;48.126;11.546;2022-08-04T14:29:56;33.30;42.40
9179;DHT22;4624;48.126;11.546;2022-08-04T14:32:24;33.30;42.20
9179;DHT22;4624;48.126;11.546;2022-08-04T14:34:51;33.30;42.00
9179;DHT22;4624;48.126;11.546;2022-08-04T14:37:17;33.30;42.10
9179;DHT22;4624;48.126;11.546;2022-08-04T14:39:49;33.20;42.20
9179;DHT22;4624;48.126;11.546;2022-08-04T14:42:17;33.20;42.50
9179;DHT22;4624;48.126;11.546;2022-08-04T14:44:53;33.30;42.20
9179;DHT22;4624;48.126;11.546;2022-08-04T14:47:42;33.30;42.30
9179;DHT22;4624;48.126;11.546;2022-08-04T14:50:10;33.30;42.20
9179;DHT22;4624;48.126;11.546;2022-08-04T14:52:38;33.30;42.90
9179;DHT22;4624;48.126;11.546;2022-08-04T14:55:15;33.30;42.50
9179;DHT22;4624;48.126;11.546;2022-08-04T14:57:42;33.30;42.60
9179;DHT22;4624;48.126;11.546;2022-08-04T15:00:10;33.30;43.00
9179;DHT22;4624;48.126;11.546;2022-08-04T15:02:38;33.30;42.70
9179;DHT22;4624;48.126;11.546;2022-08-04T15:05:08;33.30;42.30
9179;DHT22;4624;48.126;11.546;2022-08-04T15:07:36;33.20;42.50
9179;DHT22;4624;48.126;11.546;2022-08-04T15:10:03;33.20;41.80
9179;DHT22;4624;48.126;11.546;2022-08-04T15:12:30;33.30;42.40
9179;DHT22;4624;48.126;11.546;2022-08-04T15:14:57;33.30;41.90
9179;DHT22;4624;48.126;11.546;2022-08-04T15:17:23;33.30;42.20
9179;DHT22;4624;48.126;11.546;2022-08-04T15:19:51;33.20;42.00
9179;DHT22;4624;48.126;11.546;2022-08-04T15:22:19;33.20;42.30
9179;DHT22;4624;48.126;11.546;2022-08-04T15:24:46;33.20;41.90
9179;DHT22;4624;48.126;11.546;2022-08-04T15:27:13;33.20;42.20
9179;DHT22;4624;48.126;11.546;2022-08-04T15:29:43;33.20;42.20
9179;DHT22;4624;48.126;11.546;2022-08-04T15:32:14;33.10;41.80
9179;DHT22;4624;48.126;11.546;2022-08-04T15:34:45;33.10;41.60
9179;DHT22;4624;48.126;11.546;2022-08-04T15:37:17;33.10;41.40
9179;DHT22;4624;48.126;11.546;2022-08-04T15:39:51;33.10;41.60
9179;DHT22;4624;48.126;11.546;2022-08-04T15:42:29;33.00;41.50
9179;DHT22;4624;48.126;11.546;2022-08-04T15:45:18;33.00;41.50
9179;DHT22;4624;48.126;11.546;2022-08-04T15:48:22;33.00;42.00
9179;DHT22;4624;48.126;11.546;2022-08-04T15:51:15;32.90;42.00
9179;DHT22;4624;48.126;11.546;2022-08-04T15:54:20;32.90;41.70
9179;DHT22;4624;48.126;11.546;2022-08-04T15:56:49;32.90;41.90
9179;DHT22;4624;48.126;11.546;2022-08-04T15:59:56;32.90;42.10
9179;DHT22;4624;48.126;11.546;2022-08-04T16:02:48;32.80;41.70
9179;DHT22;4624;48.126;11.546;2022-08-04T16:05:32;32.80;41.40
9179;DHT22;4624;48.126;11.546;2022-08-04T16:08:09;32.80;41.30
9179;DHT22;4624;48.126;11.546;2022-08-04T16:10:41;32.80;41.20
9179;DHT22;4624;48.126;11.546;2022-08-04T16:13:10;32.80;41.20
9179;DHT22;4624;48.126;11.546;2022-08-04T16:15:40;32.80;41.80
9179;DHT22;4624;48.126;11.546;2022-08-04T16:18:09;32.70;41.90
9179;DHT22;4624;48.126;11.546;2022-08-04T16:20:36;32.70;42.20
9179;DHT22;4624;48.126;11.546;2022-08-04T16:23:26;32.70;42.30
9179;DHT22;4624;48.126;11.546;2022-08-04T16:25:58;32.70;43.00
9179;DHT22;4624;48.126;11.546;2022-08-04T16:28:37;32.70;42.40
9179;DHT22;4624;48.126;11.546;2022-08-04T16:31:08;32.70;42.20
9179;DHT22;4624;48.126;11.546;2022-08-04T16:33:35;32.60;41.40
9179;DHT22;4624;48.126;11.546;2022-08-04T16:36:05;32.60;42.60
9179;DHT22;4624;48.126;11.546;2022-08-04T16:38:59;32.30;43.50
9179;DHT22;4624;48.126;11.546;2022-08-04T16:41:38;32.00;44.00
9179;DHT22;4624;48.126;11.546;2022-08-04T16:44:28;31.80;44.30
9179;DHT22;4624;48.126;11.546;2022-08-04T16:46:56;31.60;44.50
9179;DHT22;4624;48.126;11.546;2022-08-04T16:49:24;31.50;44.80
9179;DHT22;4624;48.126;11.546;2022-08-04T16:51:52;31.40;45.20
9179;DHT22;4624;48.126;11.546;2022-08-04T16:54:19;31.30;45.60
9179;DHT22;4624;48.126;11.546;2022-08-04T16:56:48;31.20;45.50
9179;DHT22;4624;48.126;11.546;2022-08-04T16:59:15;31.20;45.50
9179;DHT22;4624;48.126;11.546;2022-08-04T17:01:46;31.20;45.50
9179;DHT22;4624;48.126;11.546;2022-08-04T17:04:13;31.10;45.40
9179;DHT22;4624;48.126;11.546;2022-08-04T17:06:42;31.00;45.40
9179;DHT22;4624;48.126;11.546;2022-08-04T17:09:10;31.00;45.60